createdAt,value
2019-05-17T00:02:37.860Z,10.60
2019-05-17T00:07:31.668Z,10.70
2019-05-17T00:12:27.123Z,10.70
2019-05-17T00:17:21.032Z,10.80
2019-05-17T00:22:16.701Z,10.90
2019-05-17T00:27:10.440Z,10.90
2019-05-17T00:32:06.275Z,10.90
2019-05-17T00:37:00.075Z,10.90
2019-05-17T00:41:53.847Z,10.90
2019-05-17T00:46:47.719Z,10.90
2019-05-17T00:51:41.658Z,11.00
2019-05-17T00:56:38.903Z,11.00
2019-05-17T01:01:33.131Z,11.00
2019-05-17T01:06:27.589Z,11.10
2019-05-17T01:11:21.609Z,11.00
2019-05-17T01:16:16.728Z,11.00
2019-05-17T01:21:10.496Z,11.00
2019-05-17T01:26:07.680Z,11.00
2019-05-17T01:31:01.750Z,11.00
2019-05-17T01:35:57.304Z,11.00
2019-05-17T01:40:51.554Z,11.00
2019-05-17T01:45:48.062Z,10.80
2019-05-17T01:50:43.017Z,10.70
2019-05-17T01:55:37.739Z,10.70
2019-05-17T02:00:31.808Z,10.70
2019-05-17T02:05:27.539Z,10.60
2019-05-17T02:10:21.647Z,10.60
2019-05-17T02:20:11.965Z,10.50
2019-05-17T02:25:11.043Z,10.50
2019-05-17T02:30:27.170Z,10.60
2019-05-17T02:40:16.155Z,10.50
2019-05-17T02:45:13.288Z,10.40
2019-05-17T02:50:07.617Z,10.40
2019-05-17T02:55:04.023Z,10.50
2019-05-17T03:09:43.369Z,10.50
2019-05-17T03:14:37.252Z,10.50
2019-05-17T03:19:32.764Z,10.50
2019-05-17T03:24:26.899Z,10.50
2019-05-17T03:29:22.721Z,10.50
2019-05-17T03:34:18.002Z,10.50
2019-05-17T03:44:07.111Z,10.50
2019-05-17T03:49:03.899Z,10.50
2019-05-17T03:54:02.121Z,10.50
2019-05-17T03:58:55.070Z,10.40
2019-05-17T04:03:49.556Z,10.50
2019-05-17T04:08:43.841Z,10.50
2019-05-17T04:13:37.833Z,10.50
2019-05-17T04:18:33.590Z,10.60
2019-05-17T04:23:27.322Z,10.70
2019-05-17T04:28:23.402Z,11.00
2019-05-17T04:33:18.780Z,11.10
2019-05-17T04:38:13.105Z,11.30
2019-05-17T04:52:58.797Z,12.40
2019-05-17T04:57:53.269Z,13.30
2019-05-17T05:02:47.434Z,14.80
2019-05-17T05:07:43.260Z,16.30
2019-05-17T05:12:38.232Z,17.30
2019-05-17T05:17:32.995Z,18.10
2019-05-17T05:22:27.659Z,19.00
2019-05-17T05:27:22.280Z,20.20
2019-05-17T05:32:16.519Z,21.30
2019-05-17T05:37:12.576Z,23.00
2019-05-17T05:42:10.392Z,22.80
2019-05-17T05:47:03.844Z,22.60
2019-05-17T05:51:57.848Z,24.10
2019-05-17T05:56:52.502Z,24.40
2019-05-17T06:01:47.972Z,24.20
2019-05-17T06:06:44.555Z,22.10
2019-05-17T06:11:38.499Z,20.50
2019-05-17T06:16:32.300Z,19.40
2019-05-17T06:21:26.267Z,19.70
2019-05-17T06:26:23.476Z,19.30
2019-05-17T06:31:16.122Z,19.20
2019-05-17T06:36:13.733Z,18.60
2019-05-17T06:41:07.282Z,18.50
2019-05-17T06:46:05.781Z,18.00
2019-05-17T06:51:04.839Z,18.30
2019-05-17T06:56:02.523Z,18.20
2019-05-17T07:00:54.933Z,18.00
2019-05-17T07:05:50.462Z,17.90
2019-05-17T07:10:44.402Z,17.70
2019-05-17T07:15:47.515Z,17.80
2019-05-17T07:20:35.980Z,17.80
2019-05-17T07:25:30.353Z,18.00
2019-05-17T07:30:24.979Z,18.00
2019-05-17T07:35:19.755Z,17.90
2019-05-17T07:40:19.790Z,17.50
2019-05-17T07:45:13.496Z,17.40
2019-05-17T07:50:11.408Z,19.40
2019-05-17T07:55:06.455Z,21.90
2019-05-17T08:00:01.987Z,23.40
2019-05-17T08:05:00.365Z,25.20
2019-05-17T08:09:57.270Z,26.80
2019-05-17T08:14:53.179Z,28.50
2019-05-17T08:19:46.935Z,30.00
2019-05-17T08:24:42.436Z,29.80
2019-05-17T08:29:40.295Z,29.70
2019-05-17T08:34:34.479Z,31.10
2019-05-17T08:39:33.217Z,30.40
2019-05-17T08:44:30.550Z,32.10
2019-05-17T08:49:24.416Z,34.80
2019-05-17T08:54:19.586Z,35.30
2019-05-17T08:59:15.710Z,32.60
2019-05-17T09:04:20.038Z,33.00
2019-05-17T09:09:13.510Z,34.10
2019-05-17T09:14:10.314Z,35.30
2019-05-17T09:19:07.239Z,34.40
2019-05-17T09:24:05.282Z,35.90
2019-05-17T09:29:01.260Z,36.30
2019-05-17T09:33:56.239Z,35.60
2019-05-17T09:38:50.577Z,32.30
2019-05-17T09:43:44.336Z,31.10
2019-05-17T09:48:39.682Z,30.00
2019-05-17T09:53:35.273Z,31.00
2019-05-17T09:58:30.928Z,31.60
2019-05-17T10:03:26.802Z,30.30
2019-05-17T10:08:23.064Z,28.80
2019-05-17T10:13:17.253Z,26.40
2019-05-17T10:18:12.550Z,24.60
2019-05-17T10:23:10.476Z,24.90
2019-05-17T10:28:06.599Z,25.10
2019-05-17T10:33:00.346Z,25.70
2019-05-17T10:37:54.103Z,25.00
2019-05-17T10:42:52.902Z,24.90
2019-05-17T10:47:50.198Z,25.20
2019-05-17T10:52:49.033Z,23.70
2019-05-17T10:57:43.601Z,23.40
2019-05-17T11:02:39.100Z,22.70
2019-05-17T11:07:34.655Z,21.70
2019-05-17T11:12:29.349Z,21.10
2019-05-17T11:17:23.911Z,20.50
2019-05-17T11:22:22.277Z,20.40
2019-05-17T11:27:18.059Z,21.00
2019-05-17T11:32:12.467Z,21.90
2019-05-17T11:37:06.295Z,22.80
2019-05-17T11:42:00.056Z,22.80
2019-05-17T11:46:53.976Z,22.50
2019-05-17T11:51:52.242Z,22.50
2019-05-17T11:56:46.333Z,22.70
2019-05-17T12:01:40.600Z,22.30
2019-05-17T12:11:29.723Z,21.60
2019-05-17T12:16:23.586Z,21.10
2019-05-17T12:21:18.335Z,20.90
2019-05-17T12:26:15.071Z,21.20
2019-05-17T12:31:08.869Z,21.80
2019-05-17T12:36:04.860Z,22.30
2019-05-17T12:40:59.090Z,22.40
2019-05-17T12:46:00.804Z,22.30
2019-05-17T12:50:49.044Z,21.80
2019-05-17T12:55:43.087Z,21.50
2019-05-17T13:00:36.855Z,21.80
2019-05-17T13:05:30.899Z,21.90
2019-05-17T13:10:24.659Z,21.30
2019-05-17T13:15:18.579Z,20.80
2019-05-17T13:20:15.848Z,20.80
2019-05-17T13:25:10.962Z,20.50
2019-05-17T13:30:09.278Z,20.40
2019-05-17T13:35:04.355Z,20.80
2019-05-17T13:39:58.100Z,20.90
2019-05-17T13:44:51.951Z,21.30
2019-05-17T13:49:45.636Z,21.60
2019-05-17T13:54:39.629Z,20.80
2019-05-17T13:59:34.044Z,20.40
2019-05-17T14:04:28.454Z,20.30
2019-05-17T14:09:22.207Z,20.50
2019-05-17T14:14:16.012Z,21.00
2019-05-17T14:19:09.774Z,20.80
2019-05-17T14:24:03.798Z,20.40
2019-05-17T14:28:57.856Z,20.10
2019-05-17T14:33:54.538Z,19.90
2019-05-17T14:38:48.333Z,20.00
2019-05-17T14:43:42.839Z,19.90
2019-05-17T14:48:37.035Z,19.80
2019-05-17T14:53:30.831Z,20.10
2019-05-17T14:58:25.025Z,20.20
2019-05-17T15:03:18.987Z,20.10
2019-05-17T15:08:13.235Z,20.20
2019-05-17T15:13:06.945Z,20.00
2019-05-17T15:18:01.256Z,19.80
2019-05-17T15:22:55.599Z,19.70
2019-05-17T15:27:50.311Z,19.80
2019-05-17T15:32:45.462Z,19.60
2019-05-17T15:37:40.575Z,19.50
2019-05-17T15:42:43.624Z,19.40
2019-05-17T15:47:30.170Z,19.50
2019-05-17T15:52:24.355Z,19.50
2019-05-17T15:57:19.177Z,19.50
2019-05-17T16:02:13.248Z,19.40
2019-05-17T16:07:08.495Z,19.30
2019-05-17T16:12:03.147Z,19.40
2019-05-17T16:16:57.091Z,19.50
2019-05-17T16:21:50.847Z,19.60
2019-05-17T16:26:45.252Z,19.70
2019-05-17T16:31:39.486Z,19.80
2019-05-17T16:36:34.852Z,19.90
2019-05-17T16:41:29.792Z,19.80
2019-05-17T16:46:24.015Z,19.70
2019-05-17T16:51:18.200Z,19.60
2019-05-17T16:56:12.308Z,19.50
2019-05-17T17:01:08.171Z,19.50
2019-05-17T17:06:02.485Z,19.40
2019-05-17T17:10:56.439Z,19.40
2019-05-17T17:15:50.289Z,19.40
2019-05-17T17:20:45.730Z,19.20
2019-05-17T17:25:40.037Z,19.20
2019-05-17T17:30:34.058Z,19.20
2019-05-17T17:35:28.710Z,19.10
2019-05-17T17:40:26.092Z,19.00
2019-05-17T17:45:25.034Z,19.00
2019-05-17T17:50:18.997Z,18.90
2019-05-17T17:55:15.888Z,18.80
2019-05-17T18:00:10.690Z,18.80
2019-05-17T18:05:06.647Z,18.70
2019-05-17T18:10:01.458Z,18.50
2019-05-17T18:14:56.192Z,18.40
2019-05-17T18:19:50.379Z,18.30
2019-05-17T18:24:47.586Z,18.20
2019-05-17T18:29:41.451Z,18.10
2019-05-17T18:34:36.037Z,17.90
2019-05-17T18:39:29.907Z,17.70
2019-05-17T18:44:28.281Z,17.60
2019-05-17T18:49:22.533Z,17.50
2019-05-17T18:54:18.242Z,17.30
2019-05-17T18:59:12.193Z,17.20
2019-05-17T19:04:06.039Z,17.00
2019-05-17T19:09:01.725Z,16.60
2019-05-17T19:13:56.423Z,16.50
2019-05-17T19:18:53.794Z,16.30
2019-05-17T19:23:47.640Z,16.20
2019-05-17T19:28:41.609Z,16.20
2019-05-17T19:33:35.415Z,16.00
2019-05-17T19:38:29.351Z,16.00
2019-05-17T19:43:23.735Z,15.80
2019-05-17T19:48:19.746Z,15.50
2019-05-17T19:53:13.251Z,15.20
2019-05-17T19:58:07.076Z,15.00
2019-05-17T20:03:01.145Z,14.80
2019-05-17T20:07:55.605Z,14.70
2019-05-17T20:12:49.997Z,14.60
2019-05-17T20:17:45.895Z,14.40
2019-05-17T20:22:42.181Z,14.30
2019-05-17T20:27:37.408Z,14.10
2019-05-17T20:32:33.511Z,13.90
2019-05-17T20:37:27.368Z,13.80
2019-05-17T20:42:21.427Z,13.80
2019-05-17T20:47:16.138Z,13.70
2019-05-17T20:52:10.467Z,13.50
2019-05-17T20:57:04.535Z,13.30
2019-05-17T21:01:58.830Z,13.20
2019-05-17T21:06:54.723Z,13.00
2019-05-17T21:11:48.551Z,12.80
2019-05-17T21:16:44.837Z,12.70
2019-05-17T21:21:38.273Z,12.60
2019-05-17T21:26:32.791Z,12.60
2019-05-17T21:31:26.639Z,12.80
2019-05-17T21:36:20.642Z,12.90
2019-05-17T21:41:15.008Z,12.90
2019-05-17T21:46:08.857Z,13.00
2019-05-17T21:51:03.162Z,12.80
2019-05-17T21:55:58.655Z,12.60
2019-05-17T22:01:04.536Z,12.40
2019-05-17T22:05:59.772Z,12.30
2019-05-17T22:10:54.757Z,12.20
2019-05-17T22:15:48.684Z,12.10
2019-05-17T22:20:43.495Z,12.00
2019-05-17T22:25:37.351Z,11.90
2019-05-17T22:30:31.184Z,11.90
2019-05-17T22:35:25.084Z,11.90
2019-05-17T22:40:21.070Z,11.90
2019-05-17T22:45:14.914Z,11.70
2019-05-17T22:50:08.852Z,11.60
2019-05-17T22:55:02.875Z,11.60
2019-05-17T22:59:58.285Z,11.50
2019-05-17T23:04:52.019Z,11.40
2019-05-17T23:09:45.871Z,11.30
2019-05-17T23:14:39.776Z,11.20
2019-05-17T23:19:34.496Z,11.20
2019-05-17T23:24:28.315Z,11.00
2019-05-17T23:29:22.075Z,11.00
2019-05-17T23:34:15.836Z,11.00
2019-05-17T23:39:10.445Z,10.90
2019-05-17T23:44:04.717Z,10.90
2019-05-17T23:48:58.930Z,10.90
2019-05-17T23:53:52.756Z,10.80
2019-05-17T23:58:46.887Z,10.80
